createdAt,value
2019-01-29T00:01:25.623Z,72.30
2019-01-29T00:03:56.312Z,69.97
2019-01-29T00:06:26.794Z,70.87
2019-01-29T00:08:58.263Z,67.77
2019-01-29T00:11:28.720Z,68.50
2019-01-29T00:13:59.109Z,64.70
2019-01-29T00:16:29.666Z,70.03
2019-01-29T00:19:00.168Z,66.03
2019-01-29T00:21:30.844Z,65.60
2019-01-29T00:24:01.264Z,66.90
2019-01-29T00:26:31.680Z,61.37
2019-01-29T00:29:02.138Z,61.70
2019-01-29T00:31:32.691Z,61.27
2019-01-29T00:34:03.271Z,59.20
2019-01-29T00:36:33.689Z,58.57
2019-01-29T00:39:06.821Z,61.00
2019-01-29T00:41:37.712Z,59.17
2019-01-29T00:44:08.302Z,57.27
2019-01-29T00:46:38.746Z,58.30
2019-01-29T00:49:09.197Z,58.00
2019-01-29T00:51:39.691Z,55.90
2019-01-29T00:54:10.314Z,57.87
2019-01-29T00:56:40.809Z,57.70
2019-01-29T00:59:13.351Z,60.23
2019-01-29T01:01:43.913Z,59.50
2019-01-29T01:04:14.335Z,60.13
2019-01-29T01:06:44.759Z,59.63
2019-01-29T01:09:15.194Z,60.53
2019-01-29T01:11:45.879Z,61.23
2019-01-29T01:14:16.262Z,62.23
2019-01-29T01:16:46.649Z,61.90
2019-01-29T01:19:17.188Z,60.77
2019-01-29T01:21:47.965Z,60.63
2019-01-29T01:24:18.818Z,60.60
2019-01-29T01:26:49.367Z,59.93
2019-01-29T01:29:20.186Z,60.43
2019-01-29T01:31:50.657Z,60.67
2019-01-29T01:34:21.106Z,59.73
2019-01-29T01:36:51.563Z,57.77
2019-01-29T01:39:22.081Z,57.33
2019-01-29T01:41:52.700Z,57.57
2019-01-29T01:44:23.431Z,55.50
2019-01-29T01:46:54.191Z,55.93
2019-01-29T01:49:24.742Z,57.53
2019-01-29T01:51:55.347Z,58.37
2019-01-29T01:54:25.791Z,55.87
2019-01-29T01:56:56.278Z,56.47
2019-01-29T01:59:26.809Z,53.63
2019-01-29T02:01:57.282Z,51.63
2019-01-29T02:04:27.706Z,54.07
2019-01-29T02:06:58.229Z,54.63
2019-01-29T02:09:28.627Z,56.17
2019-01-29T02:11:59.194Z,55.17
2019-01-29T02:14:29.934Z,57.07
2019-01-29T02:17:00.338Z,57.60
2019-01-29T02:19:30.916Z,56.13
2019-01-29T02:22:01.550Z,58.07
2019-01-29T02:24:32.088Z,57.73
2019-01-29T02:27:02.729Z,56.13
2019-01-29T02:29:33.377Z,57.97
2019-01-29T02:32:03.954Z,55.50
2019-01-29T02:34:34.538Z,55.80
2019-01-29T02:37:04.981Z,56.57
2019-01-29T02:39:35.441Z,55.07
2019-01-29T02:42:06.060Z,54.80
2019-01-29T02:44:37.171Z,53.57
2019-01-29T02:47:07.616Z,51.43
2019-01-29T02:49:38.111Z,52.53
2019-01-29T02:52:10.045Z,49.37
2019-01-29T02:54:41.085Z,51.40
2019-01-29T02:57:12.735Z,52.70
2019-01-29T02:59:43.246Z,50.83
2019-01-29T03:02:13.773Z,49.53
2019-01-29T03:04:44.530Z,50.03
2019-01-29T03:07:15.215Z,47.83
2019-01-29T03:09:45.682Z,45.90
2019-01-29T03:12:16.597Z,46.27
2019-01-29T03:14:47.100Z,46.70
2019-01-29T03:17:17.897Z,48.27
2019-01-29T03:19:49.160Z,45.63
2019-01-29T03:22:19.627Z,46.33
2019-01-29T03:24:50.356Z,46.77
2019-01-29T03:27:20.971Z,48.03
2019-01-29T03:29:51.603Z,45.30
2019-01-29T03:32:22.168Z,46.20
2019-01-29T03:34:52.680Z,45.83
2019-01-29T03:37:24.254Z,42.93
2019-01-29T03:39:54.682Z,43.73
2019-01-29T03:42:25.066Z,42.53
2019-01-29T03:44:55.524Z,43.27
2019-01-29T03:47:25.902Z,43.87
2019-01-29T03:49:56.331Z,44.53
2019-01-29T03:52:26.786Z,44.27
2019-01-29T03:54:57.204Z,41.47
2019-01-29T03:57:27.625Z,42.07
2019-01-29T03:59:58.136Z,42.30
2019-01-29T04:02:28.612Z,41.23
2019-01-29T04:04:59.372Z,41.67
2019-01-29T04:07:30.924Z,42.23
2019-01-29T04:10:01.332Z,41.13
2019-01-29T04:12:31.865Z,41.63
2019-01-29T04:15:02.497Z,42.40
2019-01-29T04:17:33.039Z,39.30
2019-01-29T04:20:04.469Z,38.40
2019-01-29T04:22:35.167Z,39.93
2019-01-29T04:25:06.216Z,38.57
2019-01-29T04:27:37.051Z,38.00
2019-01-29T04:30:09.562Z,38.43
2019-01-29T04:32:40.151Z,38.67
2019-01-29T04:35:10.844Z,37.97
2019-01-29T04:37:41.758Z,39.33
2019-01-29T04:40:14.631Z,37.63
2019-01-29T04:42:45.069Z,39.10
2019-01-29T04:45:16.217Z,40.53
2019-01-29T04:47:46.872Z,39.90
2019-01-29T04:50:22.175Z,40.77
2019-01-29T04:52:52.856Z,39.70
2019-01-29T04:55:23.967Z,40.13
2019-01-29T04:57:54.428Z,39.60
2019-01-29T05:00:27.041Z,40.90
2019-01-29T05:02:58.464Z,38.63
2019-01-29T05:05:29.099Z,40.23
2019-01-29T05:07:59.712Z,37.37
2019-01-29T05:10:42.239Z,39.90
2019-01-29T05:13:12.729Z,39.07
2019-01-29T05:15:43.394Z,38.63
2019-01-29T05:18:14.205Z,38.57
2019-01-29T05:20:44.905Z,37.70
2019-01-29T05:23:15.466Z,38.07
2019-01-29T05:25:46.123Z,38.67
2019-01-29T05:28:16.557Z,37.67
2019-01-29T05:30:47.281Z,38.43
2019-01-29T05:33:18.261Z,37.53
2019-01-29T05:35:48.984Z,37.30
2019-01-29T05:38:19.565Z,35.63
2019-01-29T05:40:50.138Z,36.23
2019-01-29T05:43:20.777Z,36.23
2019-01-29T05:45:51.351Z,36.80
2019-01-29T05:48:22.071Z,35.20
2019-01-29T05:50:52.515Z,36.63
2019-01-29T05:53:23.103Z,35.20
2019-01-29T05:55:53.738Z,35.73
2019-01-29T05:58:25.585Z,35.57
2019-01-29T06:00:56.117Z,33.97
2019-01-29T06:03:27.540Z,33.73
2019-01-29T06:05:58.261Z,34.33
2019-01-29T06:08:28.777Z,34.10
2019-01-29T06:10:59.184Z,35.20
2019-01-29T06:13:29.692Z,34.93
2019-01-29T06:16:00.630Z,34.33
2019-01-29T06:18:31.157Z,35.07
2019-01-29T06:21:01.929Z,35.47
2019-01-29T06:23:32.496Z,36.20
2019-01-29T06:26:02.999Z,34.67
2019-01-29T06:28:33.728Z,35.50
2019-01-29T06:31:04.115Z,35.30
2019-01-29T06:33:34.706Z,34.60
2019-01-29T06:36:05.399Z,35.17
2019-01-29T06:38:35.883Z,35.47
2019-01-29T06:41:06.367Z,36.90
2019-01-29T06:43:36.876Z,34.93
2019-01-29T06:46:07.468Z,35.27
2019-01-29T06:48:37.938Z,34.70
2019-01-29T06:51:08.660Z,35.23
2019-01-29T06:53:39.234Z,34.07
2019-01-29T06:56:09.717Z,35.47
2019-01-29T06:58:40.478Z,35.30
2019-01-29T07:01:10.918Z,36.37
2019-01-29T07:03:41.404Z,35.20
2019-01-29T07:06:11.947Z,36.83
2019-01-29T07:08:42.532Z,36.60
2019-01-29T07:11:13.158Z,37.40
2019-01-29T07:13:43.931Z,37.30
2019-01-29T07:16:34.999Z,37.50
2019-01-29T07:19:27.592Z,36.43
2019-01-29T07:21:59.233Z,36.93
2019-01-29T07:24:29.773Z,37.03
2019-01-29T07:27:00.543Z,38.77
2019-01-29T07:29:30.991Z,38.40
2019-01-29T07:32:01.794Z,38.07
2019-01-29T07:34:32.754Z,38.40
2019-01-29T07:37:04.189Z,37.57
2019-01-29T07:39:34.917Z,38.00
2019-01-29T07:42:06.262Z,37.90
2019-01-29T07:44:36.833Z,38.43
2019-01-29T07:47:07.351Z,40.67
2019-01-29T07:50:07.958Z,38.83
2019-01-29T07:52:39.151Z,39.57
2019-01-29T07:55:10.013Z,39.03
2019-01-29T07:57:40.568Z,39.73
2019-01-29T08:00:11.762Z,47.37
2019-01-29T08:02:42.646Z,39.70
2019-01-29T08:05:13.370Z,40.37
2019-01-29T08:07:43.860Z,39.37
2019-01-29T08:10:14.702Z,39.97
2019-01-29T08:12:45.135Z,37.03
2019-01-29T08:15:16.337Z,39.23
2019-01-29T08:17:47.134Z,39.27
2019-01-29T08:20:17.688Z,38.20
2019-01-29T08:22:48.566Z,39.10
2019-01-29T08:25:19.244Z,36.27
2019-01-29T08:27:49.928Z,37.63
2019-01-29T08:30:20.850Z,39.53
2019-01-29T08:32:51.622Z,49.53
2019-01-29T08:35:22.237Z,40.83
2019-01-29T08:37:59.320Z,40.47
2019-01-29T08:40:30.278Z,42.93
2019-01-29T08:43:01.033Z,44.87
2019-01-29T08:45:31.524Z,39.50
2019-01-29T08:48:02.252Z,38.63
2019-01-29T08:50:32.976Z,36.93
2019-01-29T08:53:03.498Z,39.80
2019-01-29T08:55:35.589Z,34.10
2019-01-29T08:58:06.431Z,36.37
2019-01-29T09:00:37.015Z,36.97
2019-01-29T09:03:07.779Z,34.27
2019-01-29T09:05:38.293Z,32.47
2019-01-29T09:08:09.139Z,32.73
2019-01-29T09:10:39.743Z,33.73
2019-01-29T09:13:10.327Z,32.10
2019-01-29T09:15:44.934Z,31.17
2019-01-29T09:18:15.651Z,32.90
2019-01-29T09:20:46.396Z,31.90
2019-01-29T09:23:17.044Z,29.10
2019-01-29T09:25:47.501Z,28.60
2019-01-29T09:28:18.599Z,27.33
2019-01-29T09:30:49.347Z,27.33
2019-01-29T09:33:20.129Z,25.97
2019-01-29T09:35:50.608Z,27.40
2019-01-29T09:38:21.017Z,28.57
2019-01-29T09:40:52.126Z,27.90
2019-01-29T09:43:23.188Z,28.43
2019-01-29T09:45:54.118Z,29.40
2019-01-29T09:48:25.044Z,28.73
2019-01-29T09:50:55.846Z,28.23
2019-01-29T09:53:26.722Z,27.97
2019-01-29T09:55:57.289Z,27.67
2019-01-29T09:58:27.912Z,27.90
2019-01-29T10:00:59.598Z,27.20
2019-01-29T10:03:30.034Z,27.77
2019-01-29T10:06:00.799Z,24.17
2019-01-29T10:08:31.459Z,22.10
2019-01-29T10:11:02.009Z,22.43
2019-01-29T10:13:32.729Z,24.20
2019-01-29T10:16:03.195Z,23.67
2019-01-29T10:18:33.698Z,22.80
2019-01-29T10:21:04.689Z,22.23
2019-01-29T10:23:35.251Z,24.03
2019-01-29T10:26:06.299Z,22.47
2019-01-29T10:28:36.929Z,23.07
2019-01-29T10:31:07.379Z,22.60
2019-01-29T10:33:37.855Z,22.43
2019-01-29T10:36:08.472Z,23.03
2019-01-29T10:38:40.138Z,21.40
2019-01-29T10:41:10.727Z,22.07
2019-01-29T10:43:41.249Z,21.60
2019-01-29T10:46:11.719Z,23.10
2019-01-29T10:48:42.118Z,20.53
2019-01-29T10:51:20.905Z,21.90
2019-01-29T10:53:51.628Z,22.03
2019-01-29T10:56:22.127Z,22.20
2019-01-29T10:58:52.791Z,21.10
2019-01-29T11:01:23.453Z,21.77
2019-01-29T11:03:53.995Z,20.70
2019-01-29T11:06:26.264Z,20.53
2019-01-29T11:08:57.212Z,20.60
2019-01-29T11:11:27.791Z,20.73
2019-01-29T11:13:58.484Z,21.03
2019-01-29T11:16:29.264Z,21.67
2019-01-29T11:19:03.438Z,21.43
2019-01-29T11:21:32.458Z,21.37
2019-01-29T11:24:03.214Z,19.93
2019-01-29T11:26:33.830Z,20.43
2019-01-29T11:29:04.569Z,20.67
2019-01-29T11:31:34.956Z,21.30
2019-01-29T11:34:05.777Z,19.80
2019-01-29T11:36:36.469Z,19.50
2019-01-29T11:39:10.579Z,19.80
2019-01-29T11:41:41.374Z,19.47
2019-01-29T11:44:12.048Z,19.83
2019-01-29T11:46:42.678Z,19.93
2019-01-29T11:49:14.574Z,19.23
2019-01-29T11:51:45.231Z,19.60
2019-01-29T11:54:15.640Z,20.70
2019-01-29T11:56:46.337Z,20.10
2019-01-29T11:59:17.335Z,19.67
2019-01-29T12:01:47.801Z,20.07
2019-01-29T12:04:18.535Z,19.40
2019-01-29T12:06:49.273Z,19.17
2019-01-29T12:09:20.201Z,18.53
2019-01-29T12:11:50.921Z,19.07
2019-01-29T12:14:21.689Z,19.27
2019-01-29T12:16:52.423Z,17.83
2019-01-29T12:19:23.240Z,17.97
2019-01-29T12:21:53.981Z,17.57
2019-01-29T12:24:24.569Z,18.57
2019-01-29T12:26:55.275Z,18.10
2019-01-29T12:29:25.994Z,18.60
2019-01-29T12:31:56.606Z,17.60
2019-01-29T12:34:27.091Z,17.40
2019-01-29T12:36:57.628Z,17.40
2019-01-29T12:39:28.434Z,17.97
2019-01-29T12:41:58.877Z,17.67
2019-01-29T12:44:29.648Z,18.30
2019-01-29T12:47:00.327Z,17.77
2019-01-29T12:49:30.852Z,20.13
2019-01-29T12:52:06.978Z,23.50
2019-01-29T12:54:37.522Z,19.07
2019-01-29T12:57:08.123Z,26.47
2019-01-29T12:59:38.775Z,26.63
2019-01-29T13:02:09.384Z,19.27
2019-01-29T13:04:40.153Z,17.70
2019-01-29T13:07:10.896Z,17.50
2019-01-29T13:09:42.582Z,17.03
2019-01-29T13:12:13.618Z,16.20
2019-01-29T13:14:44.454Z,16.00
2019-01-29T13:17:15.318Z,15.93
2019-01-29T13:19:46.211Z,15.93
2019-01-29T13:22:16.954Z,16.60
2019-01-29T13:24:47.542Z,17.17
2019-01-29T13:27:18.332Z,15.33
2019-01-29T13:29:49.174Z,15.90
2019-01-29T13:32:20.044Z,16.27
2019-01-29T13:34:51.247Z,16.80
2019-01-29T13:37:21.981Z,15.13
2019-01-29T13:39:52.672Z,14.77
2019-01-29T13:42:23.685Z,15.93
2019-01-29T13:44:54.490Z,15.97
2019-01-29T13:47:25.465Z,15.93
2019-01-29T13:49:56.229Z,15.77
2019-01-29T13:52:27.208Z,16.33
2019-01-29T13:54:58.194Z,16.40
2019-01-29T13:57:28.760Z,16.40
2019-01-29T13:59:59.482Z,15.57
2019-01-29T14:02:30.303Z,17.40
2019-01-29T14:05:01.227Z,17.47
2019-01-29T14:07:31.734Z,17.50
2019-01-29T14:10:02.561Z,16.70
2019-01-29T14:12:34.141Z,17.10
2019-01-29T14:15:05.699Z,16.37
2019-01-29T14:17:36.491Z,16.23
2019-01-29T14:20:11.162Z,17.33
2019-01-29T14:22:41.682Z,16.30
2019-01-29T14:25:13.023Z,15.20
2019-01-29T14:27:44.160Z,15.40
2019-01-29T14:30:17.590Z,16.03
2019-01-29T14:32:48.492Z,14.67
2019-01-29T14:35:19.031Z,14.50
2019-01-29T14:38:30.611Z,14.43
2019-01-29T14:41:01.248Z,13.73
2019-01-29T14:43:32.809Z,14.30
2019-01-29T14:46:03.506Z,14.40
2019-01-29T14:48:35.124Z,15.07
2019-01-29T14:51:05.732Z,14.07
2019-01-29T14:53:37.366Z,14.23
2019-01-29T14:56:08.059Z,14.53
2019-01-29T14:58:40.395Z,13.60
2019-01-29T15:01:11.937Z,13.80
2019-01-29T15:03:42.628Z,14.33
2019-01-29T15:06:13.266Z,15.07
2019-01-29T15:08:43.870Z,14.07
2019-01-29T15:11:14.424Z,13.57
2019-01-29T15:13:45.139Z,15.23
2019-01-29T15:16:25.737Z,13.93
2019-01-29T15:19:06.730Z,14.70
2019-01-29T15:21:38.222Z,13.53
2019-01-29T15:24:08.887Z,13.77
2019-01-29T15:26:39.570Z,14.23
2019-01-29T15:29:10.127Z,13.80
2019-01-29T15:31:40.774Z,14.23
2019-01-29T15:34:11.407Z,14.80
2019-01-29T15:36:43.989Z,14.70
2019-01-29T15:39:14.383Z,14.00
2019-01-29T15:41:45.366Z,14.10
2019-01-29T15:44:16.130Z,14.73
2019-01-29T15:46:46.974Z,14.53
2019-01-29T15:49:17.880Z,14.90
2019-01-29T15:51:49.227Z,16.27
2019-01-29T15:54:20.162Z,16.63
2019-01-29T15:56:50.873Z,16.73
2019-01-29T15:59:21.694Z,16.40
2019-01-29T16:01:52.601Z,18.33
2019-01-29T16:04:23.459Z,17.97
2019-01-29T16:06:54.244Z,18.97
2019-01-29T16:09:25.312Z,19.07
2019-01-29T16:11:55.851Z,19.97
2019-01-29T16:14:26.660Z,19.93
2019-01-29T16:16:57.532Z,20.40
2019-01-29T16:19:28.810Z,22.33
2019-01-29T16:22:00.036Z,20.90
2019-01-29T16:24:30.536Z,21.63
2019-01-29T16:27:06.767Z,24.97
2019-01-29T16:29:34.122Z,22.80
2019-01-29T16:32:05.056Z,21.17
2019-01-29T16:34:36.146Z,22.27
2019-01-29T16:37:07.119Z,22.33
2019-01-29T16:39:38.668Z,21.87
2019-01-29T16:42:09.282Z,22.03
2019-01-29T16:44:40.195Z,22.60
2019-01-29T16:47:11.282Z,19.87
2019-01-29T16:49:42.241Z,21.30
2019-01-29T16:52:13.093Z,21.30
2019-01-29T16:54:44.108Z,21.53
2019-01-29T16:57:14.809Z,21.70
2019-01-29T16:59:45.617Z,22.63
2019-01-29T17:02:16.256Z,22.67
2019-01-29T17:04:46.991Z,24.07
2019-01-29T17:07:17.908Z,23.63
2019-01-29T17:09:48.806Z,25.20
2019-01-29T17:12:19.725Z,24.17
2019-01-29T17:14:50.694Z,25.07
2019-01-29T17:17:21.524Z,23.90
2019-01-29T17:19:52.100Z,24.27
2019-01-29T17:22:22.935Z,23.60
2019-01-29T17:24:53.559Z,26.57
2019-01-29T17:27:24.347Z,24.73
2019-01-29T17:29:55.335Z,25.40
2019-01-29T17:32:30.415Z,25.97
2019-01-29T17:34:58.404Z,24.43
2019-01-29T17:37:29.567Z,25.43
2019-01-29T17:40:00.269Z,25.03
2019-01-29T17:42:31.207Z,25.60
2019-01-29T17:45:02.259Z,26.20
2019-01-29T17:47:33.495Z,24.43
2019-01-29T17:50:04.954Z,23.83
2019-01-29T17:52:35.929Z,24.37
2019-01-29T17:55:08.974Z,25.17
2019-01-29T17:57:39.810Z,24.70
2019-01-29T18:00:17.116Z,23.27
2019-01-29T18:02:48.278Z,24.53
2019-01-29T18:05:19.316Z,23.13
2019-01-29T18:07:49.846Z,24.33
2019-01-29T18:10:20.742Z,23.20
2019-01-29T18:12:51.341Z,23.30
2019-01-29T18:15:25.032Z,22.60
2019-01-29T18:17:56.719Z,22.93
2019-01-29T18:20:28.762Z,21.63
2019-01-29T18:22:59.478Z,23.50
2019-01-29T18:25:30.484Z,22.37
2019-01-29T18:28:01.613Z,22.80
2019-01-29T18:30:34.004Z,22.23
2019-01-29T18:33:09.111Z,24.07
2019-01-29T18:35:40.337Z,24.30
2019-01-29T18:38:11.028Z,22.67
2019-01-29T18:40:51.104Z,22.67
2019-01-29T18:43:21.788Z,22.93
2019-01-29T18:45:52.839Z,22.20
2019-01-29T18:48:23.608Z,22.43
2019-01-29T18:50:54.257Z,22.17
2019-01-29T18:53:25.630Z,22.43
2019-01-29T18:55:56.635Z,21.70
2019-01-29T18:58:28.421Z,21.43
2019-01-29T19:01:00.029Z,21.93
2019-01-29T19:03:31.342Z,20.67
2019-01-29T19:06:02.450Z,21.50
2019-01-29T19:08:33.397Z,21.77
2019-01-29T19:11:07.676Z,22.17
2019-01-29T19:13:37.922Z,20.77
2019-01-29T19:16:08.623Z,20.90
2019-01-29T19:18:40.459Z,20.17
2019-01-29T19:21:12.119Z,21.07
2019-01-29T19:23:42.979Z,20.20
2019-01-29T19:26:14.092Z,20.10
2019-01-29T19:28:44.992Z,19.17
2019-01-29T19:31:16.427Z,22.40
2019-01-29T19:33:46.915Z,20.03
2019-01-29T19:36:20.219Z,20.07
2019-01-29T19:38:51.304Z,21.57
2019-01-29T19:41:22.143Z,20.73
2019-01-29T19:43:53.515Z,20.73
2019-01-29T19:46:25.280Z,20.50
2019-01-29T19:48:55.821Z,20.97
2019-01-29T19:51:27.258Z,21.77
2019-01-29T19:53:58.288Z,23.33
2019-01-29T19:56:29.041Z,22.17
2019-01-29T19:59:00.030Z,21.87
2019-01-29T20:01:30.721Z,22.10
2019-01-29T20:04:01.710Z,23.67
2019-01-29T20:06:32.549Z,23.20
2019-01-29T20:09:04.965Z,21.87
2019-01-29T20:11:36.433Z,23.43
2019-01-29T20:14:07.262Z,23.73
2019-01-29T20:16:39.418Z,25.70
2019-01-29T20:19:10.376Z,26.97
2019-01-29T20:21:42.030Z,26.73
2019-01-29T20:24:12.692Z,22.07
2019-01-29T20:26:43.653Z,22.20
2019-01-29T20:29:14.717Z,20.80
2019-01-29T20:31:45.614Z,22.83
2019-01-29T20:34:16.343Z,23.60
2019-01-29T20:36:47.543Z,24.53
2019-01-29T20:39:18.593Z,22.60
2019-01-29T20:41:51.748Z,23.60
2019-01-29T20:44:21.787Z,22.37
2019-01-29T20:46:52.413Z,21.60
2019-01-29T20:49:24.187Z,21.57
2019-01-29T20:51:57.639Z,22.33
2019-01-29T20:54:28.337Z,21.67
2019-01-29T20:56:59.348Z,22.10
2019-01-29T20:59:30.319Z,21.87
2019-01-29T21:02:00.938Z,22.63
2019-01-29T21:04:33.375Z,22.20
2019-01-29T21:07:04.325Z,21.43
2019-01-29T21:09:35.176Z,22.93
2019-01-29T21:12:06.245Z,23.87
2019-01-29T21:14:36.915Z,23.23
2019-01-29T21:17:07.854Z,23.30
2019-01-29T21:19:39.166Z,22.17
2019-01-29T21:22:09.987Z,24.30
2019-01-29T21:24:41.179Z,23.13
2019-01-29T21:27:11.842Z,23.67
2019-01-29T21:29:42.611Z,22.57
2019-01-29T21:32:13.442Z,23.17
2019-01-29T21:34:44.126Z,23.33
2019-01-29T21:37:14.884Z,23.50
2019-01-29T21:39:45.847Z,21.53
2019-01-29T21:42:20.831Z,21.70
2019-01-29T21:44:51.496Z,22.43
2019-01-29T21:47:22.228Z,23.07
2019-01-29T21:49:52.830Z,23.13
2019-01-29T21:52:23.842Z,21.37
2019-01-29T21:54:54.680Z,21.37
2019-01-29T21:57:25.715Z,22.40
2019-01-29T21:59:56.377Z,21.83
2019-01-29T22:02:27.039Z,21.00
2019-01-29T22:04:57.651Z,21.87
2019-01-29T22:07:28.373Z,22.10
2019-01-29T22:09:58.901Z,22.80
2019-01-29T22:12:29.853Z,23.20
2019-01-29T22:15:00.643Z,24.03
2019-01-29T22:17:31.343Z,22.77
2019-01-29T22:20:02.439Z,21.50
2019-01-29T22:22:33.300Z,21.33
2019-01-29T22:25:04.183Z,21.63
2019-01-29T22:27:34.733Z,20.90
2019-01-29T22:30:07.603Z,20.70
2019-01-29T22:32:38.279Z,21.03
2019-01-29T22:35:08.757Z,21.73
2019-01-29T22:37:39.563Z,22.13
2019-01-29T22:40:14.059Z,23.77
2019-01-29T22:42:44.683Z,22.47
2019-01-29T22:45:16.170Z,22.73
2019-01-29T22:47:47.258Z,21.93
2019-01-29T22:50:29.060Z,22.03
2019-01-29T22:53:00.266Z,22.80
2019-01-29T22:55:31.439Z,23.17
2019-01-29T22:58:02.740Z,23.60
2019-01-29T23:00:57.309Z,23.00
2019-01-29T23:03:31.214Z,22.90
2019-01-29T23:06:51.778Z,21.20
2019-01-29T23:09:22.441Z,20.13
2019-01-29T23:11:53.521Z,20.77
2019-01-29T23:14:24.418Z,20.00
2019-01-29T23:16:54.986Z,19.93
2019-01-29T23:19:26.124Z,18.90
2019-01-29T23:21:56.813Z,17.10
2019-01-29T23:24:27.347Z,17.53
2019-01-29T23:26:58.172Z,17.17
2019-01-29T23:29:28.743Z,18.30
2019-01-29T23:31:59.637Z,18.60
2019-01-29T23:34:30.146Z,19.73
2019-01-29T23:37:02.344Z,19.73
2019-01-29T23:39:32.825Z,19.20
2019-01-29T23:42:03.582Z,20.17
2019-01-29T23:44:36.577Z,21.50
2019-01-29T23:47:06.702Z,21.10
2019-01-29T23:49:37.220Z,21.90
2019-01-29T23:52:07.809Z,22.17
2019-01-29T23:54:38.678Z,22.37
2019-01-29T23:57:09.238Z,20.97
2019-01-29T23:59:39.977Z,18.50
